sensor_id;sensor_type;location;lat;lon;timestamp;P1;durP1;ratioP1;P2;durP2;ratioP2
31126;SDS011;17775;57.948;12.514;2024-02-16T00:01:41;0.30;;;0.30;;
31126;SDS011;17775;57.948;12.514;2024-02-16T00:04:08;0.43;;;0.30;;
31126;SDS011;17775;57.948;12.514;2024-02-16T00:06:34;0.30;;;0.30;;
31126;SDS011;17775;57.948;12.514;2024-02-16T00:09:01;0.35;;;0.30;;
31126;SDS011;17775;57.948;12.514;2024-02-16T00:11:28;0.32;;;0.30;;
31126;SDS011;17775;57.948;12.514;2024-02-16T00:13:55;0.30;;;0.30;;
31126;SDS011;17775;57.948;12.514;2024-02-16T00:16:22;0.30;;;0.20;;
31126;SDS011;17775;57.948;12.514;2024-02-16T00:18:48;0.20;;;0.20;;
31126;SDS011;17775;57.948;12.514;2024-02-16T00:21:15;0.20;;;0.20;;
31126;SDS011;17775;57.948;12.514;2024-02-16T00:23:43;0.20;;;0.20;;
31126;SDS011;17775;57.948;12.514;2024-02-16T00:26:11;0.22;;;0.20;;
31126;SDS011;17775;57.948;12.514;2024-02-16T00:28:37;0.20;;;0.20;;
31126;SDS011;17775;57.948;12.514;2024-02-16T00:31:07;0.20;;;0.20;;
31126;SDS011;17775;57.948;12.514;2024-02-16T00:33:33;0.20;;;0.20;;
31126;SDS011;17775;57.948;12.514;2024-02-16T00:36:00;0.20;;;0.20;;
31126;SDS011;17775;57.948;12.514;2024-02-16T00:38:27;0.20;;;0.20;;
31126;SDS011;17775;57.948;12.514;2024-02-16T00:40:53;0.20;;;0.20;;
31126;SDS011;17775;57.948;12.514;2024-02-16T00:43:20;0.20;;;0.20;;
31126;SDS011;17775;57.948;12.514;2024-02-16T00:45:46;0.20;;;0.20;;
31126;SDS011;17775;57.948;12.514;2024-02-16T00:48:14;0.20;;;0.20;;
31126;SDS011;17775;57.948;12.514;2024-02-16T00:50:43;0.20;;;0.20;;
31126;SDS011;17775;57.948;12.514;2024-02-16T00:53:10;0.20;;;0.20;;
31126;SDS011;17775;57.948;12.514;2024-02-16T00:55:37;0.20;;;0.20;;
31126;SDS011;17775;57.948;12.514;2024-02-16T00:58:04;0.20;;;0.20;;
31126;SDS011;17775;57.948;12.514;2024-02-16T01:00:31;0.20;;;0.20;;
31126;SDS011;17775;57.948;12.514;2024-02-16T01:02:57;0.10;;;0.10;;
31126;SDS011;17775;57.948;12.514;2024-02-16T01:05:24;0.20;;;0.20;;
31126;SDS011;17775;57.948;12.514;2024-02-16T01:07:51;0.10;;;0.10;;
31126;SDS011;17775;57.948;12.514;2024-02-16T01:10:17;0.10;;;0.10;;
31126;SDS011;17775;57.948;12.514;2024-02-16T01:12:44;0.10;;;0.10;;
31126;SDS011;17775;57.948;12.514;2024-02-16T01:15:10;0.17;;;0.17;;
31126;SDS011;17775;57.948;12.514;2024-02-16T01:17:37;0.15;;;0.15;;
31126;SDS011;17775;57.948;12.514;2024-02-16T01:20:06;0.17;;;0.17;;
31126;SDS011;17775;57.948;12.514;2024-02-16T01:22:32;0.20;;;0.20;;
31126;SDS011;17775;57.948;12.514;2024-02-16T01:24:59;0.20;;;0.20;;
31126;SDS011;17775;57.948;12.514;2024-02-16T01:27:26;0.20;;;0.20;;
31126;SDS011;17775;57.948;12.514;2024-02-16T01:29:54;0.20;;;0.20;;
31126;SDS011;17775;57.948;12.514;2024-02-16T01:32:20;0.20;;;0.20;;
31126;SDS011;17775;57.948;12.514;2024-02-16T01:34:47;0.20;;;0.20;;
31126;SDS011;17775;57.948;12.514;2024-02-16T01:37:16;0.20;;;0.20;;
31126;SDS011;17775;57.948;12.514;2024-02-16T01:39:43;0.10;;;0.10;;
31126;SDS011;17775;57.948;12.514;2024-02-16T01:42:09;0.20;;;0.20;;
31126;SDS011;17775;57.948;12.514;2024-02-16T01:44:36;0.20;;;0.20;;
31126;SDS011;17775;57.948;12.514;2024-02-16T01:47:04;0.20;;;0.20;;
31126;SDS011;17775;57.948;12.514;2024-02-16T01:49:30;0.10;;;0.10;;
31126;SDS011;17775;57.948;12.514;2024-02-16T01:51:57;0.20;;;0.20;;
31126;SDS011;17775;57.948;12.514;2024-02-16T01:54:23;0.20;;;0.20;;
31126;SDS011;17775;57.948;12.514;2024-02-16T01:56:50;0.20;;;0.20;;
31126;SDS011;17775;57.948;12.514;2024-02-16T01:59:19;0.20;;;0.20;;
31126;SDS011;17775;57.948;12.514;2024-02-16T02:01:45;0.20;;;0.20;;
31126;SDS011;17775;57.948;12.514;2024-02-16T02:04:15;0.25;;;0.20;;
31126;SDS011;17775;57.948;12.514;2024-02-16T02:06:42;0.20;;;0.20;;
31126;SDS011;17775;57.948;12.514;2024-02-16T02:09:09;0.20;;;0.20;;
31126;SDS011;17775;57.948;12.514;2024-02-16T02:11:36;0.15;;;0.15;;
31126;SDS011;17775;57.948;12.514;2024-02-16T02:14:03;0.20;;;0.20;;
31126;SDS011;17775;57.948;12.514;2024-02-16T02:16:30;0.10;;;0.10;;
31126;SDS011;17775;57.948;12.514;2024-02-16T02:19:09;0.20;;;0.20;;
31126;SDS011;17775;57.948;12.514;2024-02-16T02:21:36;0.13;;;0.13;;
31126;SDS011;17775;57.948;12.514;2024-02-16T02:24:02;0.10;;;0.10;;
31126;SDS011;17775;57.948;12.514;2024-02-16T02:26:29;0.10;;;0.10;;
31126;SDS011;17775;57.948;12.514;2024-02-16T02:28:56;0.10;;;0.10;;
31126;SDS011;17775;57.948;12.514;2024-02-16T02:31:22;0.20;;;0.20;;
31126;SDS011;17775;57.948;12.514;2024-02-16T02:33:49;0.10;;;0.10;;
31126;SDS011;17775;57.948;12.514;2024-02-16T02:36:16;0.10;;;0.10;;
31126;SDS011;17775;57.948;12.514;2024-02-16T02:38:43;0.20;;;0.20;;
31126;SDS011;17775;57.948;12.514;2024-02-16T02:41:10;0.10;;;0.10;;
31126;SDS011;17775;57.948;12.514;2024-02-16T02:43:37;0.20;;;0.20;;
31126;SDS011;17775;57.948;12.514;2024-02-16T02:46:03;0.20;;;0.20;;
31126;SDS011;17775;57.948;12.514;2024-02-16T02:48:30;0.10;;;0.10;;
31126;SDS011;17775;57.948;12.514;2024-02-16T02:50:56;0.20;;;0.20;;
31126;SDS011;17775;57.948;12.514;2024-02-16T02:53:23;0.10;;;0.10;;
31126;SDS011;17775;57.948;12.514;2024-02-16T02:55:49;0.20;;;0.20;;
31126;SDS011;17775;57.948;12.514;2024-02-16T02:58:16;0.10;;;0.10;;
31126;SDS011;17775;57.948;12.514;2024-02-16T03:00:44;0.10;;;0.10;;
31126;SDS011;17775;57.948;12.514;2024-02-16T03:03:11;0.10;;;0.10;;
31126;SDS011;17775;57.948;12.514;2024-02-16T03:05:37;0.15;;;0.15;;
31126;SDS011;17775;57.948;12.514;2024-02-16T03:08:04;0.10;;;0.10;;
31126;SDS011;17775;57.948;12.514;2024-02-16T03:10:30;0.15;;;0.15;;
31126;SDS011;17775;57.948;12.514;2024-02-16T03:13:01;0.10;;;0.10;;
31126;SDS011;17775;57.948;12.514;2024-02-16T03:15:27;0.10;;;0.10;;
31126;SDS011;17775;57.948;12.514;2024-02-16T03:17:55;0.10;;;0.10;;
31126;SDS011;17775;57.948;12.514;2024-02-16T03:20:22;0.10;;;0.10;;
31126;SDS011;17775;57.948;12.514;2024-02-16T03:22:49;0.20;;;0.20;;
31126;SDS011;17775;57.948;12.514;2024-02-16T03:25:15;0.20;;;0.20;;
31126;SDS011;17775;57.948;12.514;2024-02-16T03:27:42;0.10;;;0.10;;
31126;SDS011;17775;57.948;12.514;2024-02-16T03:30:08;0.10;;;0.10;;
31126;SDS011;17775;57.948;12.514;2024-02-16T03:32:39;0.20;;;0.20;;
31126;SDS011;17775;57.948;12.514;2024-02-16T03:35:06;0.13;;;0.13;;
31126;SDS011;17775;57.948;12.514;2024-02-16T03:37:32;0.20;;;0.20;;
31126;SDS011;17775;57.948;12.514;2024-02-16T03:40:00;0.20;;;0.20;;
31126;SDS011;17775;57.948;12.514;2024-02-16T03:42:26;0.10;;;0.10;;
31126;SDS011;17775;57.948;12.514;2024-02-16T03:44:53;0.20;;;0.20;;
31126;SDS011;17775;57.948;12.514;2024-02-16T03:47:20;0.20;;;0.20;;
31126;SDS011;17775;57.948;12.514;2024-02-16T03:49:46;0.10;;;0.10;;
31126;SDS011;17775;57.948;12.514;2024-02-16T03:52:13;0.20;;;0.20;;
31126;SDS011;17775;57.948;12.514;2024-02-16T03:54:40;0.20;;;0.20;;
31126;SDS011;17775;57.948;12.514;2024-02-16T03:57:08;0.10;;;0.10;;
31126;SDS011;17775;57.948;12.514;2024-02-16T03:59:37;0.20;;;0.20;;
31126;SDS011;17775;57.948;12.514;2024-02-16T04:02:04;0.10;;;0.10;;
31126;SDS011;17775;57.948;12.514;2024-02-16T04:04:30;0.20;;;0.20;;
31126;SDS011;17775;57.948;12.514;2024-02-16T04:06:57;0.17;;;0.17;;
31126;SDS011;17775;57.948;12.514;2024-02-16T04:09:23;0.20;;;0.20;;
31126;SDS011;17775;57.948;12.514;2024-02-16T04:11:50;0.20;;;0.20;;
31126;SDS011;17775;57.948;12.514;2024-02-16T04:14:16;0.20;;;0.20;;
31126;SDS011;17775;57.948;12.514;2024-02-16T04:16:43;0.10;;;0.10;;
31126;SDS011;17775;57.948;12.514;2024-02-16T04:19:10;0.10;;;0.10;;
31126;SDS011;17775;57.948;12.514;2024-02-16T04:21:37;0.20;;;0.20;;
31126;SDS011;17775;57.948;12.514;2024-02-16T04:24:03;0.20;;;0.20;;
31126;SDS011;17775;57.948;12.514;2024-02-16T04:26:30;0.20;;;0.20;;
31126;SDS011;17775;57.948;12.514;2024-02-16T04:28:59;0.20;;;0.20;;
31126;SDS011;17775;57.948;12.514;2024-02-16T04:31:26;0.35;;;0.30;;
31126;SDS011;17775;57.948;12.514;2024-02-16T04:33:53;0.85;;;0.40;;
31126;SDS011;17775;57.948;12.514;2024-02-16T04:36:20;0.55;;;0.40;;
31126;SDS011;17775;57.948;12.514;2024-02-16T04:38:46;0.75;;;0.50;;
31126;SDS011;17775;57.948;12.514;2024-02-16T04:41:13;0.70;;;0.50;;
31126;SDS011;17775;57.948;12.514;2024-02-16T04:43:39;0.77;;;0.40;;
31126;SDS011;17775;57.948;12.514;2024-02-16T04:46:05;0.30;;;0.30;;
31126;SDS011;17775;57.948;12.514;2024-02-16T04:48:34;0.50;;;0.40;;
31126;SDS011;17775;57.948;12.514;2024-02-16T04:51:01;0.63;;;0.30;;
31126;SDS011;17775;57.948;12.514;2024-02-16T04:53:28;0.30;;;0.30;;
31126;SDS011;17775;57.948;12.514;2024-02-16T04:55:54;0.43;;;0.40;;
31126;SDS011;17775;57.948;12.514;2024-02-16T04:58:21;0.77;;;0.50;;
31126;SDS011;17775;57.948;12.514;2024-02-16T05:00:48;0.70;;;0.50;;
31126;SDS011;17775;57.948;12.514;2024-02-16T05:03:15;0.88;;;0.60;;
31126;SDS011;17775;57.948;12.514;2024-02-16T05:05:42;0.98;;;0.70;;
31126;SDS011;17775;57.948;12.514;2024-02-16T05:08:09;1.10;;;0.63;;
31126;SDS011;17775;57.948;12.514;2024-02-16T05:10:35;1.65;;;0.70;;
31126;SDS011;17775;57.948;12.514;2024-02-16T05:13:01;2.15;;;0.95;;
31126;SDS011;17775;57.948;12.514;2024-02-16T05:15:28;1.73;;;0.80;;
31126;SDS011;17775;57.948;12.514;2024-02-16T05:17:55;1.00;;;0.60;;
31126;SDS011;17775;57.948;12.514;2024-02-16T05:20:21;1.38;;;0.70;;
31126;SDS011;17775;57.948;12.514;2024-02-16T05:22:48;0.70;;;0.60;;
31126;SDS011;17775;57.948;12.514;2024-02-16T05:25:16;1.10;;;0.60;;
31126;SDS011;17775;57.948;12.514;2024-02-16T05:27:44;0.70;;;0.50;;
31126;SDS011;17775;57.948;12.514;2024-02-16T05:30:11;0.98;;;0.47;;
31126;SDS011;17775;57.948;12.514;2024-02-16T05:32:41;1.42;;;0.88;;
31126;SDS011;17775;57.948;12.514;2024-02-16T05:35:08;0.75;;;0.47;;
31126;SDS011;17775;57.948;12.514;2024-02-16T05:37:41;1.47;;;0.80;;
31126;SDS011;17775;57.948;12.514;2024-02-16T05:40:17;1.65;;;0.60;;
31126;SDS011;17775;57.948;12.514;2024-02-16T05:42:55;1.25;;;0.80;;
31126;SDS011;17775;57.948;12.514;2024-02-16T05:45:24;1.50;;;0.85;;
31126;SDS011;17775;57.948;12.514;2024-02-16T05:47:53;1.65;;;0.70;;
31126;SDS011;17775;57.948;12.514;2024-02-16T05:50:20;1.77;;;0.90;;
31126;SDS011;17775;57.948;12.514;2024-02-16T05:52:47;2.72;;;1.00;;
31126;SDS011;17775;57.948;12.514;2024-02-16T05:55:13;1.33;;;0.70;;
31126;SDS011;17775;57.948;12.514;2024-02-16T05:57:40;1.35;;;0.70;;
31126;SDS011;17775;57.948;12.514;2024-02-16T06:00:08;1.23;;;0.70;;
31126;SDS011;17775;57.948;12.514;2024-02-16T06:02:35;1.42;;;0.70;;
31126;SDS011;17775;57.948;12.514;2024-02-16T06:07:50;1.77;;;0.80;;
31126;SDS011;17775;57.948;12.514;2024-02-16T06:10:19;0.80;;;0.60;;
31126;SDS011;17775;57.948;12.514;2024-02-16T06:12:45;0.85;;;0.70;;
31126;SDS011;17775;57.948;12.514;2024-02-16T06:15:12;1.10;;;0.65;;
31126;SDS011;17775;57.948;12.514;2024-02-16T06:17:38;0.50;;;0.40;;
31126;SDS011;17775;57.948;12.514;2024-02-16T06:20:05;0.85;;;0.52;;
31126;SDS011;17775;57.948;12.514;2024-02-16T06:22:34;0.65;;;0.40;;
31126;SDS011;17775;57.948;12.514;2024-02-16T06:25:00;0.60;;;0.55;;
31126;SDS011;17775;57.948;12.514;2024-02-16T06:27:27;0.55;;;0.50;;
31126;SDS011;17775;57.948;12.514;2024-02-16T06:29:54;0.32;;;0.30;;
31126;SDS011;17775;57.948;12.514;2024-02-16T06:32:21;0.40;;;0.40;;
31126;SDS011;17775;57.948;12.514;2024-02-16T06:34:47;0.38;;;0.30;;
31126;SDS011;17775;57.948;12.514;2024-02-16T06:37:14;0.70;;;0.50;;
31126;SDS011;17775;57.948;12.514;2024-02-16T06:39:41;0.73;;;0.50;;
31126;SDS011;17775;57.948;12.514;2024-02-16T06:42:12;0.43;;;0.32;;
31126;SDS011;17775;57.948;12.514;2024-02-16T06:44:39;0.47;;;0.30;;
31126;SDS011;17775;57.948;12.514;2024-02-16T06:47:06;0.45;;;0.30;;
31126;SDS011;17775;57.948;12.514;2024-02-16T06:49:32;0.60;;;0.40;;
31126;SDS011;17775;57.948;12.514;2024-02-16T06:51:59;0.50;;;0.40;;
31126;SDS011;17775;57.948;12.514;2024-02-16T06:54:26;0.43;;;0.40;;
31126;SDS011;17775;57.948;12.514;2024-02-16T06:56:52;0.30;;;0.30;;
31126;SDS011;17775;57.948;12.514;2024-02-16T06:59:19;0.68;;;0.40;;
31126;SDS011;17775;57.948;12.514;2024-02-16T07:01:46;0.93;;;0.50;;
31126;SDS011;17775;57.948;12.514;2024-02-16T07:04:13;0.50;;;0.40;;
31126;SDS011;17775;57.948;12.514;2024-02-16T07:06:39;0.47;;;0.40;;
31126;SDS011;17775;57.948;12.514;2024-02-16T07:09:07;0.77;;;0.52;;
31126;SDS011;17775;57.948;12.514;2024-02-16T07:11:34;0.60;;;0.50;;
31126;SDS011;17775;57.948;12.514;2024-02-16T07:14:01;0.80;;;0.70;;
31126;SDS011;17775;57.948;12.514;2024-02-16T07:16:28;0.68;;;0.47;;
31126;SDS011;17775;57.948;12.514;2024-02-16T07:18:55;0.80;;;0.60;;
31126;SDS011;17775;57.948;12.514;2024-02-16T07:21:21;0.40;;;0.40;;
31126;SDS011;17775;57.948;12.514;2024-02-16T07:23:49;0.73;;;0.50;;
31126;SDS011;17775;57.948;12.514;2024-02-16T07:26:17;0.60;;;0.50;;
31126;SDS011;17775;57.948;12.514;2024-02-16T07:28:43;0.77;;;0.50;;
31126;SDS011;17775;57.948;12.514;2024-02-16T07:31:10;0.80;;;0.50;;
31126;SDS011;17775;57.948;12.514;2024-02-16T07:33:38;0.43;;;0.40;;
31126;SDS011;17775;57.948;12.514;2024-02-16T07:36:05;0.50;;;0.40;;
31126;SDS011;17775;57.948;12.514;2024-02-16T07:38:31;0.52;;;0.43;;
31126;SDS011;17775;57.948;12.514;2024-02-16T07:40:58;0.45;;;0.40;;
31126;SDS011;17775;57.948;12.514;2024-02-16T07:43:26;0.50;;;0.40;;
31126;SDS011;17775;57.948;12.514;2024-02-16T07:45:53;0.57;;;0.50;;
31126;SDS011;17775;57.948;12.514;2024-02-16T07:48:22;0.50;;;0.47;;
31126;SDS011;17775;57.948;12.514;2024-02-16T07:50:49;0.43;;;0.40;;
31126;SDS011;17775;57.948;12.514;2024-02-16T07:53:18;0.55;;;0.45;;
31126;SDS011;17775;57.948;12.514;2024-02-16T07:55:45;0.20;;;0.20;;
31126;SDS011;17775;57.948;12.514;2024-02-16T07:58:11;0.68;;;0.43;;
31126;SDS011;17775;57.948;12.514;2024-02-16T08:00:39;0.40;;;0.40;;
31126;SDS011;17775;57.948;12.514;2024-02-16T08:03:05;0.30;;;0.30;;
31126;SDS011;17775;57.948;12.514;2024-02-16T08:05:33;0.40;;;0.40;;
31126;SDS011;17775;57.948;12.514;2024-02-16T08:07:59;0.43;;;0.40;;
31126;SDS011;17775;57.948;12.514;2024-02-16T08:10:26;0.30;;;0.30;;
31126;SDS011;17775;57.948;12.514;2024-02-16T08:12:52;0.40;;;0.40;;
31126;SDS011;17775;57.948;12.514;2024-02-16T08:15:19;0.30;;;0.30;;
31126;SDS011;17775;57.948;12.514;2024-02-16T08:17:50;0.20;;;0.20;;
31126;SDS011;17775;57.948;12.514;2024-02-16T08:20:17;0.20;;;0.20;;
31126;SDS011;17775;57.948;12.514;2024-02-16T08:22:44;0.32;;;0.32;;
31126;SDS011;17775;57.948;12.514;2024-02-16T08:25:10;0.28;;;0.28;;
31126;SDS011;17775;57.948;12.514;2024-02-16T08:27:37;0.30;;;0.30;;
31126;SDS011;17775;57.948;12.514;2024-02-16T08:30:05;0.30;;;0.30;;
31126;SDS011;17775;57.948;12.514;2024-02-16T08:32:32;0.20;;;0.20;;
31126;SDS011;17775;57.948;12.514;2024-02-16T08:34:59;0.30;;;0.30;;
31126;SDS011;17775;57.948;12.514;2024-02-16T08:37:25;0.20;;;0.20;;
31126;SDS011;17775;57.948;12.514;2024-02-16T08:39:52;0.30;;;0.30;;
31126;SDS011;17775;57.948;12.514;2024-02-16T08:42:19;0.20;;;0.20;;
31126;SDS011;17775;57.948;12.514;2024-02-16T08:44:45;0.20;;;0.20;;
31126;SDS011;17775;57.948;12.514;2024-02-16T08:47:12;0.20;;;0.20;;
31126;SDS011;17775;57.948;12.514;2024-02-16T08:49:41;0.20;;;0.20;;
31126;SDS011;17775;57.948;12.514;2024-02-16T08:52:09;0.20;;;0.20;;
31126;SDS011;17775;57.948;12.514;2024-02-16T08:54:35;0.20;;;0.20;;
31126;SDS011;17775;57.948;12.514;2024-02-16T08:57:03;0.20;;;0.20;;
31126;SDS011;17775;57.948;12.514;2024-02-16T08:59:30;0.30;;;0.30;;
31126;SDS011;17775;57.948;12.514;2024-02-16T09:01:56;0.20;;;0.20;;
31126;SDS011;17775;57.948;12.514;2024-02-16T09:04:25;0.20;;;0.20;;
31126;SDS011;17775;57.948;12.514;2024-02-16T09:06:54;0.20;;;0.20;;
31126;SDS011;17775;57.948;12.514;2024-02-16T09:09:21;0.20;;;0.20;;
31126;SDS011;17775;57.948;12.514;2024-02-16T09:11:49;0.20;;;0.20;;
31126;SDS011;17775;57.948;12.514;2024-02-16T09:14:15;0.20;;;0.20;;
31126;SDS011;17775;57.948;12.514;2024-02-16T09:16:42;0.20;;;0.20;;
31126;SDS011;17775;57.948;12.514;2024-02-16T09:19:08;0.20;;;0.20;;
31126;SDS011;17775;57.948;12.514;2024-02-16T09:21:36;0.20;;;0.20;;
31126;SDS011;17775;57.948;12.514;2024-02-16T09:24:06;0.20;;;0.20;;
31126;SDS011;17775;57.948;12.514;2024-02-16T09:26:36;0.20;;;0.20;;
31126;SDS011;17775;57.948;12.514;2024-02-16T09:29:03;0.20;;;0.20;;
31126;SDS011;17775;57.948;12.514;2024-02-16T09:31:30;0.20;;;0.20;;
31126;SDS011;17775;57.948;12.514;2024-02-16T09:33:56;0.20;;;0.20;;
31126;SDS011;17775;57.948;12.514;2024-02-16T09:36:23;0.20;;;0.20;;
31126;SDS011;17775;57.948;12.514;2024-02-16T09:38:49;0.20;;;0.20;;
31126;SDS011;17775;57.948;12.514;2024-02-16T09:41:17;0.28;;;0.28;;
31126;SDS011;17775;57.948;12.514;2024-02-16T09:43:43;0.20;;;0.20;;
31126;SDS011;17775;57.948;12.514;2024-02-16T09:46:10;0.28;;;0.28;;
31126;SDS011;17775;57.948;12.514;2024-02-16T09:48:37;0.25;;;0.25;;
31126;SDS011;17775;57.948;12.514;2024-02-16T09:51:05;0.20;;;0.20;;
31126;SDS011;17775;57.948;12.514;2024-02-16T09:53:32;0.30;;;0.30;;
31126;SDS011;17775;57.948;12.514;2024-02-16T09:55:59;0.28;;;0.28;;
31126;SDS011;17775;57.948;12.514;2024-02-16T09:58:26;0.30;;;0.30;;
31126;SDS011;17775;57.948;12.514;2024-02-16T10:00:53;0.22;;;0.22;;
31126;SDS011;17775;57.948;12.514;2024-02-16T10:03:27;0.38;;;0.30;;
31126;SDS011;17775;57.948;12.514;2024-02-16T10:06:07;0.30;;;0.30;;
31126;SDS011;17775;57.948;12.514;2024-02-16T10:08:35;0.68;;;0.45;;
31126;SDS011;17775;57.948;12.514;2024-02-16T10:11:04;1.00;;;0.70;;
31126;SDS011;17775;57.948;12.514;2024-02-16T10:13:31;1.27;;;1.00;;
31126;SDS011;17775;57.948;12.514;2024-02-16T10:16:04;1.50;;;1.10;;
31126;SDS011;17775;57.948;12.514;2024-02-16T10:18:32;1.30;;;0.98;;
31126;SDS011;17775;57.948;12.514;2024-02-16T10:20:58;2.20;;;1.50;;
31126;SDS011;17775;57.948;12.514;2024-02-16T10:23:25;3.35;;;2.10;;
31126;SDS011;17775;57.948;12.514;2024-02-16T10:25:53;3.00;;;2.10;;
31126;SDS011;17775;57.948;12.514;2024-02-16T10:28:20;4.88;;;3.08;;
31126;SDS011;17775;57.948;12.514;2024-02-16T10:30:59;4.43;;;2.88;;
31126;SDS011;17775;57.948;12.514;2024-02-16T10:33:29;3.22;;;2.40;;
31126;SDS011;17775;57.948;12.514;2024-02-16T10:35:58;3.13;;;2.45;;
31126;SDS011;17775;57.948;12.514;2024-02-16T10:38:26;4.03;;;2.42;;
31126;SDS011;17775;57.948;12.514;2024-02-16T10:40:53;2.70;;;2.03;;
31126;SDS011;17775;57.948;12.514;2024-02-16T10:43:22;2.60;;;1.98;;
31126;SDS011;17775;57.948;12.514;2024-02-16T10:45:49;2.33;;;1.83;;
31126;SDS011;17775;57.948;12.514;2024-02-16T10:48:19;2.63;;;2.00;;
31126;SDS011;17775;57.948;12.514;2024-02-16T10:50:45;2.55;;;1.98;;
31126;SDS011;17775;57.948;12.514;2024-02-16T10:53:34;4.55;;;2.80;;
31126;SDS011;17775;57.948;12.514;2024-02-16T10:56:00;4.22;;;3.00;;
31126;SDS011;17775;57.948;12.514;2024-02-16T10:58:29;3.75;;;2.97;;
31126;SDS011;17775;57.948;12.514;2024-02-16T11:00:56;6.18;;;4.30;;
31126;SDS011;17775;57.948;12.514;2024-02-16T11:03:26;5.93;;;4.32;;
31126;SDS011;17775;57.948;12.514;2024-02-16T11:08:21;11.73;;;7.60;;
31126;SDS011;17775;57.948;12.514;2024-02-16T11:10:56;11.73;;;8.73;;
31126;SDS011;17775;57.948;12.514;2024-02-16T11:13:23;8.70;;;6.93;;
31126;SDS011;17775;57.948;12.514;2024-02-16T11:18:25;7.93;;;5.82;;
31126;SDS011;17775;57.948;12.514;2024-02-16T11:20:52;7.72;;;6.30;;
31126;SDS011;17775;57.948;12.514;2024-02-16T11:23:29;7.43;;;5.80;;
31126;SDS011;17775;57.948;12.514;2024-02-16T11:26:00;9.43;;;7.22;;
31126;SDS011;17775;57.948;12.514;2024-02-16T11:28:28;10.18;;;7.97;;
31126;SDS011;17775;57.948;12.514;2024-02-16T11:30:55;10.18;;;8.00;;
31126;SDS011;17775;57.948;12.514;2024-02-16T11:33:27;9.27;;;6.38;;
31126;SDS011;17775;57.948;12.514;2024-02-16T11:35:57;8.65;;;6.13;;
31126;SDS011;17775;57.948;12.514;2024-02-16T11:38:25;7.43;;;5.50;;
31126;SDS011;17775;57.948;12.514;2024-02-16T11:41:02;8.25;;;6.32;;
31126;SDS011;17775;57.948;12.514;2024-02-16T11:43:29;11.57;;;7.85;;
31126;SDS011;17775;57.948;12.514;2024-02-16T11:45:56;12.35;;;8.88;;
31126;SDS011;17775;57.948;12.514;2024-02-16T11:48:23;10.23;;;7.68;;
31126;SDS011;17775;57.948;12.514;2024-02-16T11:50:57;9.50;;;7.63;;
31126;SDS011;17775;57.948;12.514;2024-02-16T11:53:24;8.15;;;6.50;;
31126;SDS011;17775;57.948;12.514;2024-02-16T11:55:50;8.80;;;6.40;;
31126;SDS011;17775;57.948;12.514;2024-02-16T11:58:17;10.40;;;8.00;;
31126;SDS011;17775;57.948;12.514;2024-02-16T12:00:45;13.00;;;9.57;;
31126;SDS011;17775;57.948;12.514;2024-02-16T12:03:12;14.52;;;9.60;;
31126;SDS011;17775;57.948;12.514;2024-02-16T12:05:38;11.10;;;7.80;;
31126;SDS011;17775;57.948;12.514;2024-02-16T12:08:06;10.98;;;7.75;;
31126;SDS011;17775;57.948;12.514;2024-02-16T12:10:32;11.13;;;8.65;;
31126;SDS011;17775;57.948;12.514;2024-02-16T12:12:59;13.20;;;10.00;;
31126;SDS011;17775;57.948;12.514;2024-02-16T12:15:31;11.73;;;8.82;;
31126;SDS011;17775;57.948;12.514;2024-02-16T12:17:59;11.77;;;9.55;;
31126;SDS011;17775;57.948;12.514;2024-02-16T12:20:27;14.18;;;10.20;;
31126;SDS011;17775;57.948;12.514;2024-02-16T12:22:54;11.48;;;9.02;;
31126;SDS011;17775;57.948;12.514;2024-02-16T12:25:20;11.50;;;9.57;;
31126;SDS011;17775;57.948;12.514;2024-02-16T12:27:47;15.82;;;11.40;;
31126;SDS011;17775;57.948;12.514;2024-02-16T12:30:13;12.20;;;8.75;;
31126;SDS011;17775;57.948;12.514;2024-02-16T12:32:40;11.82;;;9.88;;
31126;SDS011;17775;57.948;12.514;2024-02-16T12:35:07;15.10;;;10.75;;
31126;SDS011;17775;57.948;12.514;2024-02-16T12:37:34;14.07;;;10.93;;
31126;SDS011;17775;57.948;12.514;2024-02-16T12:40:01;16.35;;;11.70;;
31126;SDS011;17775;57.948;12.514;2024-02-16T12:42:29;11.65;;;8.82;;
31126;SDS011;17775;57.948;12.514;2024-02-16T12:44:55;12.15;;;9.07;;
31126;SDS011;17775;57.948;12.514;2024-02-16T12:47:22;9.65;;;8.35;;
31126;SDS011;17775;57.948;12.514;2024-02-16T12:49:48;12.40;;;9.65;;
31126;SDS011;17775;57.948;12.514;2024-02-16T12:52:19;9.43;;;8.05;;
31126;SDS011;17775;57.948;12.514;2024-02-16T12:57:13;10.82;;;8.10;;
31126;SDS011;17775;57.948;12.514;2024-02-16T12:59:39;8.20;;;7.15;;
31126;SDS011;17775;57.948;12.514;2024-02-16T13:02:06;8.63;;;6.53;;
31126;SDS011;17775;57.948;12.514;2024-02-16T13:04:32;6.45;;;5.60;;
31126;SDS011;17775;57.948;12.514;2024-02-16T13:07:00;5.30;;;4.55;;
31126;SDS011;17775;57.948;12.514;2024-02-16T13:09:26;5.20;;;4.70;;
31126;SDS011;17775;57.948;12.514;2024-02-16T13:11:54;6.55;;;5.78;;
31126;SDS011;17775;57.948;12.514;2024-02-16T13:14:21;5.85;;;5.25;;
31126;SDS011;17775;57.948;12.514;2024-02-16T13:16:48;6.55;;;5.68;;
31126;SDS011;17775;57.948;12.514;2024-02-16T13:19:14;5.97;;;5.05;;
31126;SDS011;17775;57.948;12.514;2024-02-16T13:21:43;6.63;;;5.70;;
31126;SDS011;17775;57.948;12.514;2024-02-16T13:24:10;5.82;;;4.95;;
31126;SDS011;17775;57.948;12.514;2024-02-16T13:26:37;5.07;;;4.57;;
31126;SDS011;17775;57.948;12.514;2024-02-16T13:29:03;4.90;;;4.18;;
31126;SDS011;17775;57.948;12.514;2024-02-16T13:31:29;7.30;;;5.20;;
31126;SDS011;17775;57.948;12.514;2024-02-16T13:33:57;4.40;;;3.83;;
31126;SDS011;17775;57.948;12.514;2024-02-16T13:36:23;4.05;;;3.65;;
31126;SDS011;17775;57.948;12.514;2024-02-16T13:38:50;4.82;;;3.75;;
31126;SDS011;17775;57.948;12.514;2024-02-16T13:41:16;3.72;;;3.25;;
31126;SDS011;17775;57.948;12.514;2024-02-16T13:43:46;3.65;;;3.25;;
31126;SDS011;17775;57.948;12.514;2024-02-16T13:46:12;4.65;;;3.50;;
31126;SDS011;17775;57.948;12.514;2024-02-16T13:48:39;3.78;;;3.22;;
31126;SDS011;17775;57.948;12.514;2024-02-16T13:51:08;4.15;;;3.47;;
31126;SDS011;17775;57.948;12.514;2024-02-16T13:53:37;3.45;;;2.83;;
31126;SDS011;17775;57.948;12.514;2024-02-16T13:56:04;3.80;;;3.20;;
31126;SDS011;17775;57.948;12.514;2024-02-16T13:58:32;2.58;;;2.38;;
31126;SDS011;17775;57.948;12.514;2024-02-16T14:01:00;2.70;;;2.28;;
31126;SDS011;17775;57.948;12.514;2024-02-16T14:03:29;3.20;;;2.58;;
31126;SDS011;17775;57.948;12.514;2024-02-16T14:05:56;4.40;;;4.00;;
31126;SDS011;17775;57.948;12.514;2024-02-16T14:08:23;3.40;;;3.10;;
31126;SDS011;17775;57.948;12.514;2024-02-16T14:10:50;3.13;;;2.55;;
31126;SDS011;17775;57.948;12.514;2024-02-16T14:13:16;2.67;;;2.22;;
31126;SDS011;17775;57.948;12.514;2024-02-16T14:15:43;2.10;;;1.90;;
31126;SDS011;17775;57.948;12.514;2024-02-16T14:18:09;1.80;;;1.60;;
31126;SDS011;17775;57.948;12.514;2024-02-16T14:20:47;2.58;;;1.98;;
31126;SDS011;17775;57.948;12.514;2024-02-16T14:23:13;2.05;;;1.85;;
31126;SDS011;17775;57.948;12.514;2024-02-16T14:25:40;3.13;;;2.40;;
31126;SDS011;17775;57.948;12.514;2024-02-16T14:28:06;3.22;;;2.33;;
31126;SDS011;17775;57.948;12.514;2024-02-16T14:30:34;2.42;;;2.10;;
31126;SDS011;17775;57.948;12.514;2024-02-16T14:33:03;2.40;;;2.10;;
31126;SDS011;17775;57.948;12.514;2024-02-16T14:35:31;2.90;;;2.28;;
31126;SDS011;17775;57.948;12.514;2024-02-16T14:38:03;2.65;;;2.35;;
31126;SDS011;17775;57.948;12.514;2024-02-16T14:40:31;3.00;;;2.20;;
31126;SDS011;17775;57.948;12.514;2024-02-16T14:42:57;2.63;;;2.00;;
31126;SDS011;17775;57.948;12.514;2024-02-16T14:45:24;3.55;;;2.67;;